Data for 04/03/2009

Time Sea-Level Adjusted Pressure Absolute Pressure Temperature Relative Humidity Dew Point   
(mb) (inHg) (mb) (inHg) (C) (F) (%) (C) (F)
00:05 1009 29.8 838 24.75 -1.4 29.4 60 -8.1 17.3
00:10 1009 29.8 838 24.75 -1.5 29.3 62 -8 17.6
00:15 1008 29.77 838 24.75 -1.6 29.2 61 -8.1 17.4
00:20 1008 29.77 838 24.75 -1.7 28.9 62 -8 17.6
00:25 1008 29.77 838 24.75 -1.8 28.8 63 -7.9 17.7
00:30 1008 29.77 838 24.75 -1.7 28.9 63 -8 17.7
00:35 1008 29.77 837 24.72 -1.6 29.2 62 -8 17.6
00:40 1008 29.77 837 24.72 -1.7 28.9 64 -7.8 18
00:45 1008 29.77 837 24.72 -1.8 28.7 64 -7.8 17.9
00:50 1008 29.77 837 24.72 -1.7 28.9 64 -7.6 18.2
00:55 1008 29.77 837 24.72 -1.7 28.9 64 -7.6 18.3
01:00 1008 29.77 837 24.72 -1.8 28.7 65 -7.5 18.4
01:05 1008 29.77 837 24.72 -2 28.4 66 -7.5 18.4
01:10 1008 29.77 837 24.72 -2 28.4 67 -7.4 18.7
01:15 1008 29.77 837 24.72 -2 28.5 67 -7.4 18.7
01:20 1008 29.77 837 24.72 -1.9 28.5 67 -7.3 18.8
01:25 1008 29.77 837 24.72 -1.9 28.5 67 -7.3 18.8
01:30 1008 29.77 837 24.72 -1.9 28.6 67 -7.3 18.9
01:35 1008 29.77 837 24.72 -1.9 28.6 66 -7.4 18.7
01:40 1008 29.77 837 24.72 -1.9 28.5 67 -7.2 19
01:45 1008 29.77 837 24.72 -1.9 28.5 67 -7.3 18.8
01:50 1008 29.77 837 24.72 -1.9 28.6 66 -7.4 18.6
01:55 1008 29.77 837 24.72 -1.9 28.5 66 -7.4 18.6
02:00 1008 29.77 837 24.72 -1.9 28.6 67 -7.3 18.9
02:05 1008 29.77 837 24.72 -1.8 28.8 64 -7.6 18.2
02:10 1008 29.77 837 24.72 -1.6 29.2 62 -7.9 17.9
02:15 1008 29.77 837 24.72 -1.3 29.7 63 -7.5 18.4
02:20 1008 29.77 837 24.72 -1.1 30 65 -7 19.4
02:25 1008 29.77 837 24.72 -1.2 29.8 63 -7.3 18.8
02:30 1008 29.77 837 24.72 -1.5 29.4 64 -7.5 18.5
02:35 1008 29.77 837 24.72 -1.5 29.3 63 -7.7 18.1
02:40 1008 29.77 837 24.72 -1.5 29.3 64 -7.4 18.7
02:45 1008 29.77 837 24.72 -1.5 29.3 65 -7.2 19.1
02:50 1008 29.77 837 24.72 -1.6 29.1 67 -7 19.4
02:55 1008 29.77 837 24.72 -1.6 29.1 66 -7.3 18.9
03:00 1008 29.77 837 24.72 -1.6 29.1 64 -7.6 18.4
03:05 1008 29.77 837 24.72 -1.5 29.3 65 -7.3 18.8
03:10 1007 29.74 837 24.72 -1.4 29.4 65 -7.1 19.2
03:15 1007 29.74 837 24.72 -1.5 29.3 64 -7.4 18.7
03:20 1007 29.74 837 24.72 -1.4 29.4 64 -7.3 18.8
03:25 1007 29.74 837 24.72 -1.4 29.4 65 -7.1 19.2
03:30 1007 29.74 837 24.72 -1.3 29.6 65 -7 19.4
03:35 1007 29.74 837 24.72 -1.3 29.6 65 -7.2 19.1
03:40 1007 29.74 837 24.72 -1.4 29.4 65 -7.2 19
03:45 1007 29.74 837 24.72 -1.5 29.4 64 -7.4 18.6
03:50 1007 29.74 837 24.72 -1.4 29.6 64 -7.4 18.7
03:55 1007 29.74 837 24.72 -1.2 29.8 64 -7.3 18.9
04:00 1007 29.74 837 24.72 -1.1 30 62 -7.4 18.6
04:05 1007 29.74 837 24.72 -0.9 30.3 61 -7.4 18.6
04:10 1007 29.74 836 24.69 -0.8 30.5 63 -7 19.4
04:15 1007 29.74 836 24.69 -0.7 30.7 63 -7 19.5
04:20 1007 29.74 836 24.69 -0.5 31.1 61 -7.2 19.1
04:25 1007 29.74 836 24.69 -0.3 31.5 61 -6.9 19.6
04:30 1007 29.74 836 24.69 -0.5 31.2 65 -6.2 20.9
04:35 1007 29.74 836 24.69 -1.2 29.8 68 -6.5 20.4
04:40 1007 29.74 836 24.69 -1.4 29.4 70 -6.3 20.7
04:45 1007 29.74 836 24.69 -1.6 29.1 69 -6.6 20.1
04:50 1007 29.74 836 24.69 -1.6 29.1 67 -6.9 19.6
04:55 1007 29.74 836 24.69 -1.5 29.3 67 -6.8 19.7
05:00 1007 29.74 836 24.69 -1.5 29.4 66 -7.1 19.3
05:05 1007 29.74 836 24.69 -1.3 29.7 66 -6.8 19.7
05:10 1007 29.74 836 24.69 -0.9 30.4 63 -7 19.4
05:15 1007 29.74 836 24.69 -0.4 31.3 61 -7 19.3
05:20 1007 29.74 836 24.69 -0.3 31.5 60 -7.1 19.3
05:25 1007 29.74 836 24.69 -0.1 31.7 60 -7 19.4
05:30 1007 29.74 836 24.69 -0.1 31.7 59 -7.3 18.8
05:35 1007 29.74 836 24.69 -0.2 31.7 60 -6.9 19.6
05:40 1007 29.74 836 24.69 -0.2 31.6 61 -6.9 19.5
05:45 1007 29.74 836 24.69 -0.2 31.6 62 -6.7 19.9
05:50 1007 29.74 836 24.69 -0.3 31.5 61 -6.9 19.6
05:55 1007 29.74 836 24.69 -0.2 31.6 61 -6.9 19.5
06:00 1007 29.74 836 24.69 -0.2 31.7 61 -6.7 19.9
06:05 1007 29.74 836 24.69 -0.2 31.6 63 -6.5 20.4
06:10 1007 29.74 836 24.69 -0.3 31.4 62 -6.8 19.8
06:15 1007 29.74 836 24.69 -0.5 31.1 67 -5.9 21.4
06:20 1007 29.74 836 24.69 -1.2 29.9 68 -6.3 20.7
06:25 1007 29.74 836 24.69 -1.3 29.7 68 -6.5 20.3
06:30 1007 29.74 836 24.69 -1.2 29.9 68 -6.4 20.6
06:35 1007 29.74 836 24.69 -1.2 29.9 66 -6.7 19.9
06:40 1007 29.74 836 24.69 -1.1 30.1 67 -6.5 20.4
06:45 1007 29.74 836 24.69 -1.1 30.1 66 -6.6 20.1
06:50 1007 29.74 836 24.69 -1 30.3 67 -6.4 20.4
06:55 1007 29.74 836 24.69 -0.9 30.4 66 -6.4 20.5
07:00 1006 29.71 836 24.69 -0.9 30.3 67 -6.4 20.5
07:05 1006 29.71 836 24.69 -1 30.1 67 -6.4 20.5
07:10 1006 29.71 836 24.69 -1 30.2 68 -6.2 20.8
07:15 1006 29.71 836 24.69 -1 30.3 67 -6.4 20.6
07:20 1006 29.71 836 24.69 -0.9 30.4 67 -6.3 20.7
07:25 1006 29.71 836 24.69 -1 30.3 68 -6.1 21.1
07:30 1006 29.71 836 24.69 -1.1 30 67 -6.4 20.4
07:35 1006 29.71 836 24.69 -1.1 30 67 -6.5 20.4
07:40 1007 29.74 836 24.69 -1.1 29.9 68 -6.2 20.8
07:45 1007 29.74 836 24.69 -1.1 30 66 -6.8 19.8
07:50 1006 29.71 836 24.69 -0.9 30.4 65 -6.8 19.8
07:55 1006 29.71 836 24.69 -0.6 30.9 65 -6.4 20.5
08:00 1006 29.71 836 24.69 -0.6 31 64 -6.6 20.1
08:05 1006 29.71 836 24.69 -0.4 31.2 63 -6.7 19.9
08:10 1006 29.71 835 24.66 -0.5 31.2 66 -6 21.2
08:15 1006 29.71 835 24.66 -0.6 30.9 67 -6 21.2
08:20 1006 29.71 835 24.66 -0.6 30.9 66 -6.1 21
08:25 1006 29.71 835 24.66 -0.5 31.1 68 -5.8 21.6
08:30 1006 29.71 835 24.66 -0.4 31.2 67 -5.7 21.7
08:35 1006 29.71 835 24.66 -0.3 31.5 66 -5.8 21.6
08:40 1006 29.71 835 24.66 -0 32 66 -5.6 21.9
08:45 1006 29.71 835 24.66 -0 32 67 -5.5 22.1
08:50 1006 29.71 835 24.66 0.1 32.2 67 -5.2 22.6
08:55 1006 29.71 835 24.66 0.5 32.9 67 -5 22.9
09:00 1006 29.71 835 24.66 0.2 32.3 69 -4.9 23.2
09:05 1006 29.71 835 24.66 0.1 32.1 69 -5 23
09:10 1006 29.71 835 24.66 -0.1 31.9 69 -5 22.9
09:15 1006 29.71 835 24.66 0.2 32.4 68 -5 22.9
09:20 1006 29.71 835 24.66 0.4 32.8 67 -5 23
09:25 1006 29.71 835 24.66 0.7 33.3 65 -5 23
09:30 1006 29.71 835 24.66 1 33.9 65 -4.8 23.3
09:35 1005 29.68 835 24.66 1.6 34.8 61 -5.2 22.7
09:40 1005 29.68 835 24.66 1.9 35.3 60 -5.1 22.9
09:45 1005 29.68 834 24.63 1.9 35.4 58 -5.5 22.1
09:50 1005 29.68 834 24.63 2.2 35.9 57 -5.5 22
09:55 1005 29.68 834 24.63 2.4 36.3 56 -5.5 22
10:00 1005 29.68 834 24.63 2.5 36.5 56 -5.4 22.2
10:05 1005 29.68 834 24.63 2.7 36.9 55 -5.5 22.1
10:10 1005 29.68 834 24.63 2.5 36.6 56 -5.4 22.3
10:15 1005 29.68 834 24.63 2.5 36.6 55 -5.5 22
10:20 1005 29.68 834 24.63 2.6 36.8 55 -5.5 22.1
10:25 1005 29.68 834 24.63 2.9 37.2 53 -5.7 21.8
10:30 1005 29.68 834 24.63 3.2 37.7 50 -6.3 20.7
10:35 1005 29.68 834 24.63 3.3 37.9 52 -5.8 21.6
10:40 1005 29.68 834 24.63 3.7 38.6 50 -5.9 21.4
10:45 1004 29.65 834 24.63 3.7 38.6 50 -5.7 21.7
10:50 1004 29.65 834 24.63 3.8 38.8 52 -5.3 22.5
10:55 1004 29.65 834 24.63 4.4 39.9 48 -5.8 21.6
11:00 1004 29.65 834 24.63 4.4 40 48 -5.6 21.9
11:05 1004 29.65 833 24.6 4.2 39.6 52 -4.9 23.2
11:10 1004 29.65 833 24.6 4 39.3 50 -5.5 22.1
11:15 1004 29.65 833 24.6 4.1 39.3 49 -5.6 21.8
11:20 1004 29.65 833 24.6 4.6 40.3 47 -5.7 21.8
11:25 1004 29.65 833 24.6 5 40.9 48 -5 22.9
11:30 1004 29.65 833 24.6 5.6 42 44 -5.6 21.9
11:35 1004 29.65 833 24.6 5.8 42.5 44 -5.4 22.3
11:40 1004 29.65 833 24.6 5.2 41.3 47 -5.2 22.7
11:45 1004 29.65 834 24.63 4.5 40.1 48 -5.5 22.1
11:50 1004 29.65 833 24.6 5.1 41.2 45 -5.8 21.5
11:55 1004 29.65 833 24.6 5.7 42.2 45 -5.4 22.2
12:00 1004 29.65 833 24.6 6.1 43 45 -5.1 22.9
12:05 1004 29.65 833 24.6 6.3 43.4 43 -5.4 22.4
12:10 1004 29.65 833 24.6 6.4 43.6 46 -4.4 24.1
12:15 1004 29.65 833 24.6 6.1 43.1 45 -4.8 23.3
12:20 1004 29.65 833 24.6 5.7 42.2 47 -4.8 23.3
12:25 1004 29.65 833 24.6 6.1 43 44 -5.3 22.5
12:30 1004 29.65 833 24.6 6.3 43.4 44 -5 22.9
12:35 1004 29.65 833 24.6 6.3 43.3 46 -4.5 23.9
12:40 1004 29.65 833 24.6 5.8 42.5 49 -4 24.8
12:45 1004 29.65 833 24.6 6.3 43.4 44 -4.9 23.1
12:50 1004 29.65 833 24.6 6.2 43.2 49 -3.6 25.4
12:55 1004 29.65 833 24.6 6.4 43.5 46 -4.5 23.9
13:00 1004 29.65 833 24.6 5.8 42.4 48 -4.5 23.9
13:05 1004 29.65 833 24.6 5.9 42.7 49 -4.1 24.6
13:10 1004 29.65 833 24.6 5.5 41.9 50 -4.1 24.6
13:15 1004 29.65 833 24.6 5.8 42.4 48 -4.4 24.1
13:20 1004 29.65 833 24.6 5.6 42.1 49 -4.3 24.3
13:25 1004 29.65 833 24.6 5.3 41.6 51 -4 24.7
13:30 1003 29.62 833 24.6 5.9 42.5 47 -4.6 23.7
13:35 1004 29.65 833 24.6 5.9 42.7 49 -4 24.9
13:40 1004 29.65 833 24.6 5.4 41.7 52 -3.7 25.3
13:45 1004 29.65 833 24.6 5.2 41.4 52 -3.9 25
13:50 1004 29.65 833 24.6 5.5 41.9 53 -3.2 26.2
13:55 1004 29.65 833 24.6 4.9 40.7 57 -2.9 26.8
14:00 1004 29.65 833 24.6 5 41 56 -3.1 26.3
14:05 1004 29.65 833 24.6 4.9 40.7 57 -3 26.7
14:10 1004 29.65 833 24.6 4.4 39.9 68 -1 30.2
14:15 1004 29.65 833 24.6 3.3 38 75 -0.7 30.8
14:20 1004 29.65 833 24.6 3.1 37.5 77 -0.6 31
14:25 1004 29.65 833 24.6 2.4 36.3 80 -0.7 30.7
14:30 1004 29.65 833 24.6 2.1 35.8 81 -0.9 30.4
14:35 1004 29.65 833 24.6 2.1 35.9 82 -0.5 31
14:40 1004 29.65 833 24.6 2 35.5 86 -0.1 31.9
14:45 1003 29.62 833 24.6 2.6 36.6 81 -0.4 31.3
14:50 1003 29.62 833 24.6 2.7 36.9 83 0.2 32.3
14:55 1003 29.62 833 24.6 3.2 37.7 80 0 32.1
15:00 1003 29.62 833 24.6 3.3 38 77 -0.4 31.3
15:05 1003 29.62 833 24.6 3.3 38 74 -0.9 30.4
15:10 1003 29.62 833 24.6 3.8 38.8 73 -0.6 31
15:15 1003 29.62 832 24.57 3.9 39 76 0 32
15:20 1003 29.62 832 24.57 3.5 38.2 77 -0.2 31.6
15:25 1003 29.62 832 24.57 3.4 38.1 79 0.1 32.2
15:30 1003 29.62 832 24.57 3.3 37.9 79 0 32
15:35 1003 29.62 832 24.57 3.2 37.8 79 -0.1 31.8
15:40 1003 29.62 832 24.57 3.3 37.9 79 -0.1 31.8
15:45 1003 29.62 832 24.57 3.5 38.4 79 0.3 32.5
15:50 1003 29.62 832 24.57 4.3 39.8 74 0 32.1
15:55 1003 29.62 832 24.57 4.3 39.8 75 0.3 32.6
16:00 1003 29.62 832 24.57 4.2 39.5 74 -0.1 31.9
16:05 1003 29.62 832 24.57 4 39.2 75 -0.1 31.9
16:10 1003 29.62 832 24.57 4.2 39.6 73 -0.2 31.6
16:15 1003 29.62 832 24.57 3.9 39.1 73 -0.5 31
16:20 1003 29.62 832 24.57 4 39.2 71 -0.8 30.6
16:25 1003 29.62 832 24.57 4.1 39.4 72 -0.5 31.1
16:30 1003 29.62 832 24.57 4.4 39.8 71 -0.4 31.4
16:35 1003 29.62 832 24.57 5 41 71 0.1 32.1
16:40 1003 29.62 832 24.57 5.5 41.9 66 -0.4 31.2
16:45 1003 29.62 832 24.57 5.5 41.9 65 -0.5 31.1
16:50 1003 29.62 832 24.57 5.9 42.6 64 -0.4 31.2
16:55 1003 29.62 832 24.57 5.9 42.6 65 -0.3 31.5
17:00 1003 29.62 832 24.57 5.3 41.6 66 -0.5 31.2
17:05 1003 29.62 832 24.57 5.1 41.1 66 -0.7 30.7
17:10 1003 29.62 832 24.57 4.8 40.6 66 -1 30.1
17:15 1003 29.62 832 24.57 5.1 41.1 65 -1 30.3
17:20 1003 29.62 832 24.57 5.3 41.5 63 -1.1 30.1
17:25 1003 29.62 832 24.57 5.7 42.2 62 -1 30.1
17:30 1003 29.62 832 24.57 5.5 41.9 63 -1 30.2
17:35 1003 29.62 832 24.57 5.7 42.3 62 -1.1 30.1
17:40 1003 29.62 832 24.57 5.9 42.7 59 -1.4 29.5
17:45 1003 29.62 832 24.57 6.6 43.8 57 -1.4 29.4
17:50 1003 29.62 832 24.57 7 44.7 56 -1.1 30.1
17:55 1003 29.62 832 24.57 7 44.7 55 -1.4 29.5
18:00 1003 29.62 832 24.57 7.4 45.3 54 -1.4 29.5
18:05 1003 29.62 832 24.57 7.7 45.8 53 -1.2 29.9
18:10 1002 29.59 832 24.57 7.8 46 53 -1.2 29.9
18:15 1002 29.59 832 24.57 7.1 44.8 55 -1.3 29.6
18:20 1003 29.62 832 24.57 6.8 44.2 55 -1.5 29.3
18:25 1003 29.62 832 24.57 6.5 43.7 57 -1.5 29.4
18:30 1003 29.62 832 24.57 6.3 43.3 59 -1.2 29.8
18:35 1003 29.62 832 24.57 6.2 43.1 62 -0.6 30.9
18:40 1003 29.62 832 24.57 4.6 40.3 73 0.2 32.4
18:45 1003 29.62 832 24.57 3.1 37.7 76 -0.6 30.9
18:50 1003 29.62 832 24.57 2.4 36.3 83 -0.2 31.6
18:55 1003 29.62 832 24.57 1.6 34.8 87 -0.4 31.2
19:00 1003 29.62 833 24.6 1.4 34.5 88 -0.4 31.3
19:05 1003 29.62 833 24.6 1.2 34.1 89 -0.5 31.1
19:10 1003 29.62 833 24.6 1.1 34 91 -0.2 31.6
19:15 1003 29.62 833 24.6 1.2 34.2 89 -0.3 31.4
19:20 1003 29.62 833 24.6 1.2 34.1 91 -0.2 31.7
19:25 1003 29.62 833 24.6 1 33.8 92 -0.1 31.8
19:30 1003 29.62 833 24.6 0.9 33.6 93 -0 31.9
19:35 1003 29.62 833 24.6 1.2 34.1 93 0.1 32.2
19:40 1003 29.62 833 24.6 1.2 34.1 92 0.1 32.1
19:45 1004 29.65 833 24.6 1.1 34 93 0.1 32.2
19:50 1004 29.65 833 24.6 1 33.7 94 0.1 32.2
19:55 1004 29.65 833 24.6 0.9 33.6 94 0.1 32.1
20:00 1004 29.65 833 24.6 0.9 33.6 94 0.1 32.1
20:05 1004 29.65 833 24.6 0.9 33.6 94 0.1 32.2
20:10 1004 29.65 833 24.6 0.9 33.6 94 0.1 32.1
20:15 1004 29.65 833 24.6 0.9 33.6 94 0.1 32.2
20:20 1004 29.65 833 24.6 1 33.8 94 0.1 32.1
20:25 1004 29.65 833 24.6 0.9 33.7 94 0.1 32.1
20:30 1004 29.65 833 24.6 1 33.8 94 0.1 32.1
20:35 1004 29.65 833 24.6 1 33.8 94 0.1 32.3
20:40 1004 29.65 833 24.6 1 33.8 94 0.1 32.2
20:45 1004 29.65 833 24.6 0.9 33.6 94 0.1 32.2
20:50 1004 29.65 833 24.6 0.8 33.5 95 0 32.1
20:55 1004 29.65 833 24.6 0.4 32.8 97 -0.1 31.9
21:00 1004 29.65 833 24.6 0.4 32.8 97 -0 32
21:05 1004 29.65 833 24.6 0.5 33 97 0.1 32.1
21:10 1004 29.65 833 24.6 0.6 33.1 94 -0.3 31.5
21:15 1004 29.65 833 24.6 0.7 33.3 94 -0.2 31.7
21:20 1004 29.65 834 24.63 0.5 32.9 94 -0.3 31.4
21:25 1004 29.65 834 24.63 0.4 32.7 95 -0.4 31.3
21:30 1004 29.65 833 24.6 0.2 32.3 95 -0.5 31.1
21:35 1004 29.65 833 24.6 0 32.1 96 -0.5 31.1
21:40 1004 29.65 833 24.6 -0.1 31.8 97 -0.6 31
21:45 1004 29.65 833 24.6 -0.1 31.7 97 -0.6 31
21:50 1004 29.65 833 24.6 -0.2 31.7 97 -0.6 31
21:55 1004 29.65 833 24.6 -0.2 31.7 98 -0.5 31.1
22:00 1004 29.65 833 24.6 -0.2 31.6 98 -0.5 31
22:05 1004 29.65 833 24.6 -0.1 31.8 98 -0.5 31.2
22:10 1004 29.65 833 24.6 -0.1 31.9 98 -0.4 31.3
22:15 1004 29.65 833 24.6 -0 31.9 97 -0.4 31.3
22:20 1004 29.65 833 24.6 -0.1 31.8 97 -0.5 31.1
22:25 1004 29.65 833 24.6 -0.2 31.6 97 -0.6 31
22:30 1004 29.65 833 24.6 -0.2 31.6 97 -0.6 30.9
22:35 1004 29.65 833 24.6 -0.3 31.4 97 -0.7 30.7
22:40 1004 29.65 833 24.6 -0.4 31.3 97 -0.7 30.7
22:45 1004 29.65 833 24.6 -0.4 31.3 97 -0.8 30.6
22:50 1004 29.65 833 24.6 -0.5 31.1 97 -0.9 30.5
22:55 1004 29.65 833 24.6 -0.6 31 97 -0.9 30.4
23:00 1004 29.65 833 24.6 -0.6 31 97 -0.9 30.3
23:05 1003 29.62 833 24.6 -0.6 31 97 -0.9 30.3
23:10 1004 29.65 833 24.6 -0.5 31 97 -0.9 30.3
23:15 1004 29.65 833 24.6 -0.5 31.2 97 -0.9 30.3
23:20 1004 29.65 833 24.6 -0.4 31.3 96 -1 30.3
23:25 1004 29.65 833 24.6 -0.5 31.2 97 -0.9 30.3
23:30 1004 29.65 833 24.6 -0.5 31.2 97 -0.9 30.4
23:35 1004 29.65 833 24.6 -0.5 31.2 97 -0.9 30.4
23:40 1004 29.65 833 24.6 -0.4 31.3 97 -0.9 30.5
23:45 1004 29.65 833 24.6 -0.4 31.2 97 -0.8 30.6
23:50 1004 29.65 833 24.6 -0.4 31.3 98 -0.7 30.8
23:55 1004 29.65 833 24.6 -0.3 31.5 98 -0.6 30.9
24:00 1004 29.65 833 24.6 -0.5 31.1 97 -0.9 30.3
00:05 1004 29.65 833 24.6 -0.7 30.7 97 -1.2 29.9
00:10 1004 29.65 833 24.6 -0.8 30.6 97 -1.2 29.8
00:15 1003 29.62 833 24.6 -0.8 30.6 97 -1.2 29.8
00:20 1003 29.62 833 24.6 -0.7 30.7 97 -1.1 30
00:25 1003 29.62 833 24.6 -0.6 30.9 97 -1.1 30
00:30 1003 29.62 833 24.6 -0.6 30.9 97 -1.1 30
00:35 1003 29.62 832 24.57 -0.6 30.9 96 -1.1 30
00:40 1003 29.62 832 24.57 -0.6 30.9 96 -1.1 30
00:45 1003 29.62 832 24.57 -0.6 30.9 96 -1.1 30
00:50 1003 29.62 832 24.57 -0.6 31 96 -1.1 30
00:55 1003 29.62 832 24.57 -0.7 30.8 96 -1.3 29.7
01:00 1003 29.62 832 24.57 -0.9 30.4 95 -1.5 29.3
01:05 1003 29.62 833 24.6 -1 30.2 96 -1.5 29.3
01:10 1003 29.62 833 24.6 -1.2 29.9 97 -1.6 29.2
01:15 1003 29.62 832 24.57 -1.1 30 97 -1.6 29.2
01:20 1003 29.62 833 24.6 -1 30.3 96 -1.5 29.3
01:25 1003 29.62 833 24.6 -0.9 30.3 96 -1.4 29.4
01:30 1003 29.62 833 24.6 -0.9 30.3 97 -1.4 29.4
01:35 1004 29.65 833 24.6 -1 30.3 97 -1.4 29.4
01:40 1004 29.65 833 24.6 -1 30.2 97 -1.4 29.4
01:45 1004 29.65 833 24.6 -1 30.3 97 -1.4 29.5
01:50 1004 29.65 833 24.6 -0.9 30.3 97 -1.4 29.6
01:55 1004 29.65 833 24.6 -1 30.1 97 -1.4 29.4
02:00 1004 29.65 833 24.6 -1.2 29.9 97 -1.5 29.3
02:05 1004 29.65 833 24.6 -1.3 29.7 98 -1.6 29.1
02:10 1004 29.65 833 24.6 -1.4 29.6 98 -1.6 29.1
02:15 1004 29.65 833 24.6 -1.4 29.5 98 -1.6 29.1
02:20 1004 29.65 833 24.6 -1.3 29.6 99 -1.6 29.2
02:25 1004 29.65 833 24.6 -1.3 29.7 98 -1.5 29.3
02:30 1004 29.65 833 24.6 -1.4 29.6 98 -1.6 29.2
02:35 1004 29.65 833 24.6 -1.3 29.6 99 -1.5 29.3
02:40 1004 29.65 833 24.6 -1.2 29.8 98 -1.5 29.4
02:45 1004 29.65 833 24.6 -1.2 29.9 99 -1.4 29.5
02:50 1004 29.65 833 24.6 -1.2 29.9 99 -1.4 29.6
02:55 1004 29.65 833 24.6 -1.2 29.9 99 -1.4 29.5
03:00 1004 29.65 833 24.6 -1.2 29.8 98 -1.5 29.3
03:05 1004 29.65 833 24.6 -1.3 29.6 98 -1.6 29.2
03:10 1004 29.65 833 24.6 -1.3 29.7 99 -1.5 29.4
03:15 1004 29.65 833 24.6 -1.1 30 98 -1.4 29.5
03:20 1004 29.65 833 24.6 -1.1 30 98 -1.4 29.6
03:25 1004 29.65 833 24.6 -1.1 30 98 -1.3 29.6
03:30 1004 29.65 833 24.6 -1.2 29.9 98 -1.4 29.5
03:35 1004 29.65 833 24.6 -1.1 29.9 98 -1.4 29.5
03:40 1004 29.65 833 24.6 -1.2 29.8 98 -1.5 29.3
03:45 1004 29.65 833 24.6 -1.3 29.7 98 -1.6 29.2
03:50 1004 29.65 833 24.6 -1.3 29.6 98 -1.5 29.2
03:55 1004 29.65 833 24.6 -1.3 29.6 98 -1.6 29.1
04:00 1004 29.65 833 24.6 -1.4 29.4 98 -1.7 29
04:05 1004 29.65 833 24.6 -1.5 29.3 98 -1.7 28.9
04:10 1004 29.65 833 24.6 -1.5 29.2 98 -1.8 28.8
04:15 1004 29.65 833 24.6 -1.6 29.2 98 -1.8 28.7
04:20 1004 29.65 833 24.6 -1.5 29.2 98 -1.8 28.8
04:25 1004 29.65 833 24.6 -1.5 29.2 98 -1.8 28.8
04:30 1004 29.65 833 24.6 -1.5 29.3 98 -1.8 28.8
04:35 1004 29.65 833 24.6 -1.6 29.2 98 -1.9 28.7
04:40 1004 29.65 833 24.6 -1.7 29 98 -1.9 28.5
04:45 1004 29.65 833 24.6 -1.7 29 98 -2 28.4
04:50 1004 29.65 833 24.6 -1.7 28.9 98 -2 28.3
04:55 1004 29.65 833 24.6 -1.7 28.9 98 -2 28.4
05:00 1004 29.65 833 24.6 -1.7 28.9 98 -2 28.3
05:05 1004 29.65 833 24.6 -1.8 28.8 98 -2.1 28.3
05:10 1004 29.65 833 24.6 -1.8 28.7 98 -2.1 28.2
05:15 1004 29.65 833 24.6 -1.8 28.7 98 -2.2 28.1
05:20 1004 29.65 833 24.6 -1.9 28.6 98 -2.2 28
05:25 1004 29.65 833 24.6 -1.9 28.6 98 -2.2 28
05:30 1004 29.65 833 24.6 -1.9 28.7 98 -2.2 28
05:35 1004 29.65 833 24.6 -1.8 28.7 98 -2.2 28.1
05:40 1004 29.65 833 24.6 -1.8 28.7 98 -2.2 28.1
05:45 1004 29.65 833 24.6 -1.9 28.6 97 -2.2 28
05:50 1004 29.65 833 24.6 -1.8 28.7 98 -2.2 28.1
05:55 1004 29.65 833 24.6 -1.8 28.8 98 -2.1 28.3
06:00 1004 29.65 833 24.6 -1.6 29 98 -2 28.4
06:05 1004 29.65 833 24.6 -1.5 29.3 98 -1.8 28.7
06:10 1004 29.65 834 24.63 -1.4 29.5 97 -1.8 28.8
06:15 1004 29.65 834 24.63 -1.4 29.4 97 -1.8 28.7
06:20 1004 29.65 834 24.63 -1.4 29.4 97 -1.9 28.6
06:25 1004 29.65 834 24.63 -1.6 29.2 97 -2 28.4
06:30 1005 29.68 834 24.63 -1.8 28.8 97 -2.3 27.9
06:35 1005 29.68 834 24.63 -2 28.5 97 -2.4 27.6
06:40 1005 29.68 834 24.63 -2.1 28.3 97 -2.5 27.5
06:45 1005 29.68 834 24.63 -2.1 28.2 97 -2.5 27.4
06:50 1005 29.68 834 24.63 -2 28.4 97 -2.4 27.6
06:55 1005 29.68 834 24.63 -2 28.4 97 -2.4 27.6
07:00 1005 29.68 834 24.63 -2 28.5 97 -2.5 27.6
07:05 1005 29.68 834 24.63 -2 28.4 97 -2.5 27.5
07:10 1005 29.68 834 24.63 -2 28.5 97 -2.4 27.7
07:15 1005 29.68 834 24.63 -1.8 28.7 96 -2.3 27.8
07:20 1005 29.68 834 24.63 -1.8 28.8 97 -2.3 27.9
07:25 1005 29.68 834 24.63 -1.8 28.8 97 -2.3 27.9
07:30 1005 29.68 834 24.63 -1.8 28.7 97 -2.3 27.8
07:35 1005 29.68 834 24.63 -1.8 28.7 97 -2.3 27.9
07:40 1005 29.68 834 24.63 -1.8 28.7 96 -2.3 27.8
07:45 1005 29.68 834 24.63 -1.9 28.6 96 -2.4 27.6
07:50 1005 29.68 834 24.63 -1.9 28.6 96 -2.4 27.7
07:55 1005 29.68 834 24.63 -1.9 28.6 96 -2.4 27.6
08:00 1005 29.68 834 24.63 -1.9 28.6 96 -2.4 27.7
08:05 1005 29.68 834 24.63 -1.8 28.7 96 -2.4 27.7
08:10 1005 29.68 834 24.63 -1.7 28.9 96 -2.3 27.8
08:15 1005 29.68 834 24.63 -1.6 29 95 -2.3 27.9
08:20 1005 29.68 834 24.63 -1.6 29.1 95 -2.2 28
08:25 1005 29.68 834 24.63 -1.4 29.4 95 -2.1 28.1
08:30 1005 29.68 834 24.63 -1.4 29.5 94 -2.2 28.1
08:35 1005 29.68 834 24.63 -1.2 29.8 94 -2 28.4
08:40 1005 29.68 834 24.63 -1 30.3 94 -1.8 28.7
08:45 1005 29.68 834 24.63 -0.8 30.5 93 -1.9 28.6
08:50 1005 29.68 834 24.63 -0.8 30.5 93 -1.9 28.6
08:55 1005 29.68 835 24.66 -0.7 30.8 92 -1.8 28.8
09:00 1005 29.68 835 24.66 -0.4 31.3 91 -1.7 29
09:05 1005 29.68 835 24.66 -0.4 31.3 91 -1.7 28.9
09:10 1005 29.68 835 24.66 -0.6 31 91 -1.8 28.7
09:15 1005 29.68 835 24.66 -0.5 31 91 -1.9 28.6
09:20 1006 29.71 835 24.66 -0.4 31.3 88 -2.1 28.1
09:25 1006 29.71 835 24.66 -0.3 31.5 87 -2.2 28
09:30 1006 29.71 835 24.66 -0.3 31.5 87 -2.2 28.1
09:35 1006 29.71 835 24.66 -0.1 31.8 87 -2 28.5
09:40 1006 29.71 835 24.66 0.1 32.1 85 -2.1 28.2
09:45 1006 29.71 835 24.66 0 32 86 -2.1 28.3
09:50 1006 29.71 835 24.66 0 32.1 86 -2 28.4
09:55 1006 29.71 835 24.66 0.2 32.4 84 -2.2 28.1
10:00 1006 29.71 835 24.66 0.2 32.3 87 -1.8 28.7
10:05 1006 29.71 835 24.66 0.1 32.2 86 -2 28.4
10:10 1006 29.71 835 24.66 0.4 32.7 86 -1.6 29
10:15 1006 29.71 835 24.66 0.4 32.7 86 -1.7 28.9
10:20 1006 29.71 835 24.66 0.3 32.5 86 -1.8 28.7
10:25 1006 29.71 835 24.66 0.1 32.2 86 -2 28.4
10:30 1006 29.71 835 24.66 0.1 32.2 86 -2 28.5
10:35 1006 29.71 835 24.66 0.4 32.7 86 -1.7 28.9
10:40 1006 29.71 835 24.66 0.6 33 83 -1.9 28.5
10:45 1006 29.71 835 24.66 0.7 33.3 83 -1.8 28.7
10:50 1006 29.71 835 24.66 1.1 34 80 -1.9 28.5
10:55 1006 29.71 835 24.66 1.3 34.3 79 -2 28.5
11:00 1006 29.71 835 24.66 1.4 34.5 79 -1.8 28.7
11:05 1006 29.71 836 24.69 1.5 34.7 79 -1.8 28.8
11:10 1006 29.71 836 24.69 1.3 34.4 80 -1.7 28.9
11:15 1006 29.71 836 24.69 1.1 34 80 -1.9 28.5
11:20 1006 29.71 836 24.69 0.9 33.6 81 -2.1 28.3
11:25 1006 29.71 836 24.69 0.6 33.1 82 -2.2 28.1
11:30 1006 29.71 836 24.69 0.8 33.5 81 -2.1 28.3
11:35 1007 29.74 836 24.69 1.3 34.3 78 -2.1 28.3
11:40 1007 29.74 836 24.69 1 33.8 80 -2 28.4
11:45 1007 29.74 836 24.69 0.9 33.6 79 -2.3 27.8
11:50 1007 29.74 836 24.69 0.8 33.4 79 -2.4 27.7
11:55 1007 29.74 836 24.69 0.6 33.1 80 -2.5 27.5
12:00 1007 29.74 836 24.69 0.4 32.7 80 -2.7 27.2
12:05 1007 29.74 836 24.69 0.3 32.6 80 -2.7 27.1
12:10 1007 29.74 836 24.69 0.2 32.3 80 -2.9 26.9
12:15 1007 29.74 836 24.69 0.1 32.1 81 -2.8 26.9
12:20 1007 29.74 836 24.69 -0.1 31.8 80 -3.1 26.4
12:25 1007 29.74 836 24.69 -0.1 31.9 81 -2.9 26.7
12:30 1007 29.74 836 24.69 -0.3 31.4 82 -3 26.6
12:35 1007 29.74 836 24.69 -0.3 31.5 80 -3.3 26.1
12:40 1007 29.74 836 24.69 -0.6 31 83 -3.1 26.4
12:45 1007 29.74 836 24.69 -0.9 30.5 85 -3.1 26.4
12:50 1007 29.74 836 24.69 -0.7 30.7 83 -3.2 26.3
12:55 1007 29.74 836 24.69 -0.4 31.2 82 -3.1 26.4
13:00 1007 29.74 836 24.69 -0.2 31.6 81 -3.1 26.4
13:05 1007 29.74 836 24.69 -0.2 31.6 82 -2.9 26.8
13:10 1007 29.74 836 24.69 -0.3 31.5 83 -2.8 27
13:15 1007 29.74 836 24.69 -0.4 31.3 85 -2.6 27.4
13:20 1007 29.74 836 24.69 -0.6 30.9 87 -2.5 27.4
13:25 1007 29.74 836 24.69 -0.8 30.5 89 -2.4 27.6
13:30 1007 29.74 836 24.69 -1 30.1 90 -2.4 27.7
13:35 1007 29.74 836 24.69 -1.2 29.9 91 -2.5 27.5
13:40 1007 29.74 836 24.69 -1.4 29.5 92 -2.5 27.5
13:45 1007 29.74 836 24.69 -1.4 29.5 92 -2.5 27.5
13:50 1007 29.74 836 24.69 -1.1 30 91 -2.4 27.7
13:55 1007 29.74 836 24.69 -1.2 29.8 91 -2.5 27.5
14:00 1007 29.74 837 24.72 -1.1 30 90 -2.5 27.5
14:05 1007 29.74 837 24.72 -1.2 29.9 90 -2.6 27.3
14:10 1007 29.74 837 24.72 -1.1 30 90 -2.5 27.4
14:15 1007 29.74 837 24.72 -1 30.2 90 -2.5 27.5
14:20 1007 29.74 837 24.72 -1.1 30.1 90 -2.6 27.4
14:25 1007 29.74 837 24.72 -1.1 30 89 -2.6 27.2
14:30 1007 29.74 837 24.72 -1.1 30 90 -2.5 27.5
14:35 1007 29.74 837 24.72 -1 30.1 92 -2.2 28.1
14:40 1008 29.77 837 24.72 -0.9 30.4 92 -2.1 28.3
14:45 1008 29.77 837 24.72 -0.9 30.4 92 -2 28.3
14:50 1008 29.77 837 24.72 -1 30.2 92 -2.2 28
14:55 1008 29.77 837 24.72 -1.1 29.9 92 -2.3 27.9
15:00 1008 29.77 837 24.72 -1.2 29.9 93 -2.2 28
15:05 1008 29.77 837 24.72 -0.9 30.4 92 -2.1 28.2
15:10 1008 29.77 837 24.72 -0.9 30.4 92 -2 28.4
15:15 1008 29.77 837 24.72 -0.9 30.4 91 -2.2 28.1
15:20 1008 29.77 837 24.72 -0.8 30.5 91 -2.2 28.1
15:25 1008 29.77 837 24.72 -0.8 30.6 91 -2 28.4
15:30 1008 29.77 837 24.72 -0.8 30.6 91 -2 28.4
15:35 1008 29.77 837 24.72 -0.7 30.7 92 -1.9 28.6
15:40 1008 29.77 837 24.72 -0.7 30.7 92 -1.9 28.5
15:45 1008 29.77 837 24.72 -0.8 30.5 92 -1.9 28.5
15:50 1008 29.77 837 24.72 -0.7 30.7 92 -1.8 28.7
15:55 1008 29.77 837 24.72 -0.6 30.9 92 -1.7 28.9
16:00 1008 29.77 837 24.72 -0.5 31.2 90 -1.9 28.6
16:05 1008 29.77 837 24.72 -0.6 31 92 -1.8 28.8
16:10 1008 29.77 837 24.72 -0.5 31.1 92 -1.7 29
16:15 1008 29.77 837 24.72 -0.3 31.5 90 -1.7 28.9
16:20 1008 29.77 837 24.72 -0.1 31.9 89 -1.6 29
16:25 1008 29.77 837 24.72 -0 32 89 -1.6 29.1
16:30 1008 29.77 837 24.72 0.2 32.4 89 -1.3 29.6
16:35 1008 29.77 838 24.75 0.2 32.3 90 -1.4 29.6
16:40 1008 29.77 838 24.75 -0.3 31.5 92 -1.4 29.5
16:45 1008 29.77 838 24.75 0 32 90 -1.4 29.5
16:50 1008 29.77 838 24.75 -0.3 31.5 89 -1.8 28.8
16:55 1009 29.8 838 24.75 -0.4 31.3 92 -1.5 29.4
17:00 1009 29.8 838 24.75 -0.1 31.7 91 -1.5 29.3
17:05 1009 29.8 838 24.75 -0.5 31.1 93 -1.6 29.2
17:10 1009 29.8 838 24.75 -0.7 30.7 94 -1.5 29.3
17:15 1009 29.8 838 24.75 -0.8 30.6 94 -1.6 29
17:20 1009 29.8 838 24.75 -0.9 30.3 95 -1.7 28.9
17:25 1009 29.8 838 24.75 -0.9 30.3 96 -1.5 29.3
17:30 1009 29.8 838 24.75 -0.9 30.3 96 -1.6 29.2
17:35 1009 29.8 838 24.75 -0.9 30.4 95 -1.6 29.1
17:40 1009 29.8 838 24.75 -0.8 30.6 95 -1.4 29.4
17:45 1009 29.8 838 24.75 -0.7 30.8 95 -1.4 29.4
17:50 1009 29.8 838 24.75 -0.8 30.6 95 -1.5 29.3
17:55 1009 29.8 838 24.75 -0.7 30.7 95 -1.5 29.3
18:00 1009 29.8 838 24.75 -0.8 30.5 96 -1.4 29.4
18:05 1009 29.8 838 24.75 -0.8 30.5 96 -1.4 29.4
18:10 1009 29.8 838 24.75 -0.7 30.7 96 -1.3 29.7
18:15 1009 29.8 838 24.75 -0.6 30.9 95 -1.3 29.6
18:20 1009 29.8 838 24.75 -0.6 30.9 95 -1.3 29.7
18:25 1009 29.8 838 24.75 -0.4 31.2 94 -1.2 29.8
18:30 1009 29.8 839 24.78 -0.5 31.1 95 -1.2 29.9
18:35 1009 29.8 839 24.78 -0.4 31.2 95 -1.2 29.9
18:40 1009 29.8 839 24.78 -0.4 31.3 95 -1.2 29.9
18:45 1010 29.83 839 24.78 -0.6 30.9 96 -1.2 29.8
18:50 1010 29.83 839 24.78 -0.6 30.9 96 -1.2 29.8
18:55 1010 29.83 839 24.78 -0.7 30.8 95 -1.3 29.6
19:00 1010 29.83 839 24.78 -0.7 30.8 96 -1.3 29.6
19:05 1010 29.83 839 24.78 -0.7 30.8 96 -1.2 29.8
19:10 1010 29.83 839 24.78 -0.6 30.8 96 -1.3 29.7
19:15 1010 29.83 839 24.78 -0.7 30.8 96 -1.3 29.7
19:20 1010 29.83 839 24.78 -0.7 30.8 96 -1.2 29.8
19:25 1010 29.83 839 24.78 -0.6 30.8 96 -1.1 29.9
19:30 1010 29.83 839 24.78 -0.7 30.8 97 -1.1 29.9
19:35 1010 29.83 839 24.78 -0.7 30.7 97 -1.2 29.8
19:40 1010 29.83 839 24.78 -0.8 30.5 97 -1.3 29.7
19:45 1010 29.83 840 24.81 -0.9 30.4 97 -1.3 29.6
19:50 1010 29.83 840 24.81 -0.9 30.3 97 -1.4 29.5
19:55 1011 29.85 840 24.81 -0.9 30.3 97 -1.4 29.5
20:00 1011 29.85 840 24.81 -1 30.3 96 -1.5 29.3
20:05 1011 29.85 840 24.81 -0.9 30.3 96 -1.6 29.2
20:10 1011 29.85 840 24.81 -0.9 30.4 95 -1.6 29.1
20:15 1011 29.85 840 24.81 -0.9 30.5 93 -1.8 28.8
20:20 1011 29.85 840 24.81 -0.8 30.5 93 -1.9 28.6
20:25 1011 29.85 840 24.81 -0.9 30.3 93 -1.9 28.6
20:30 1011 29.85 840 24.81 -1 30.1 94 -1.9 28.6
20:35 1011 29.85 840 24.81 -1.1 30 94 -1.9 28.6
20:40 1011 29.85 841 24.83 -1.2 29.8 95 -1.9 28.5
20:45 1011 29.85 841 24.83 -1.2 29.8 95 -1.9 28.5
20:50 1012 29.88 841 24.83 -1.3 29.7 95 -2 28.3
20:55 1012 29.88 841 24.83 -1.3 29.7 94 -2.1 28.2
21:00 1012 29.88 841 24.83 -1.3 29.7 94 -2.1 28.2
21:05 1012 29.88 841 24.83 -1.3 29.6 94 -2.2 28.1
21:10 1012 29.88 841 24.83 -1.4 29.6 95 -2 28.4
21:15 1012 29.88 841 24.83 -1.4 29.5 96 -2 28.4
21:20 1012 29.88 841 24.83 -1.5 29.3 97 -2 28.5
21:25 1012 29.88 841 24.83 -1.5 29.3 97 -1.9 28.5
21:30 1012 29.88 842 24.86 -1.6 29.1 97 -2 28.5
21:35 1012 29.88 842 24.86 -1.6 29.1 97 -2.1 28.3
21:40 1012 29.88 842 24.86 -1.7 29 97 -2.1 28.2
21:45 1013 29.91 842 24.86 -1.7 28.9 97 -2.1 28.3
21:50 1013 29.91 842 24.86 -1.7 28.9 97 -2.1 28.2
21:55 1013 29.91 842 24.86 -1.7 28.9 98 -2.1 28.2
22:00 1013 29.91 842 24.86 -1.8 28.8 97 -2.1 28.2
22:05 1013 29.91 842 24.86 -1.8 28.8 97 -2.2 28.1
22:10 1013 29.91 842 24.86 -1.8 28.7 97 -2.2 28.1
22:15 1013 29.91 842 24.86 -1.8 28.8 98 -2.1 28.2
22:20 1013 29.91 842 24.86 -1.8 28.8 98 -2.1 28.2
22:25 1013 29.91 842 24.86 -1.8 28.7 98 -2.1 28.1
22:30 1013 29.91 842 24.86 -1.9 28.7 97 -2.3 27.8
22:35 1013 29.91 842 24.86 -1.9 28.6 97 -2.4 27.7
22:40 1013 29.91 842 24.86 -1.9 28.5 97 -2.4 27.7
22:45 1013 29.91 842 24.86 -1.9 28.6 96 -2.5 27.5
22:50 1013 29.91 842 24.86 -1.9 28.6 96 -2.5 27.5
22:55 1013 29.91 842 24.86 -1.8 28.7 94 -2.7 27.2
23:00 1013 29.91 842 24.86 -1.8 28.8 94 -2.7 27.2
23:05 1013 29.91 842 24.86 -1.8 28.8 95 -2.5 27.5
23:10 1013 29.91 842 24.86 -1.8 28.8 95 -2.5 27.4
23:15 1013 29.91 842 24.86 -1.8 28.7 95 -2.5 27.4
23:20 1013 29.91 842 24.86 -1.8 28.7 95 -2.5 27.6
23:25 1013 29.91 842 24.86 -1.9 28.6 95 -2.5 27.5
23:30 1013 29.91 842 24.86 -1.8 28.7 94 -2.8 27
23:35 1013 29.91 842 24.86 -1.8 28.8 94 -2.7 27.2
23:40 1013 29.91 843 24.89 -1.8 28.8 93 -2.8 27
23:45 1013 29.91 843 24.89 -1.8 28.8 91 -3 26.5
23:50 1013 29.91 843 24.89 -1.8 28.8 94 -2.7 27.1
23:55 1013 29.91 843 24.89 -1.9 28.6 94 -2.7 27.1
24:00 1014 29.94 843 24.89 -2 28.5 95 -2.7 27.2